sensor_id;sensor_type;location;lat;lon;timestamp;P1;durP1;ratioP1;P2;durP2;ratioP2
23179;SDS011;11758;45.756;11.432;2023-04-15T00:01:47;3.95;;;3.15;;
23179;SDS011;11758;45.756;11.432;2023-04-15T00:04:13;3.08;;;2.60;;
23179;SDS011;11758;45.756;11.432;2023-04-15T00:06:39;4.30;;;3.90;;
23179;SDS011;11758;45.756;11.432;2023-04-15T00:09:05;4.53;;;4.15;;
23179;SDS011;11758;45.756;11.432;2023-04-15T00:11:31;4.30;;;3.90;;
23179;SDS011;11758;45.756;11.432;2023-04-15T00:13:57;5.47;;;4.00;;
23179;SDS011;11758;45.756;11.432;2023-04-15T00:16:24;8.77;;;3.60;;
23179;SDS011;11758;45.756;11.432;2023-04-15T00:18:50;2.00;;;1.90;;
23179;SDS011;11758;45.756;11.432;2023-04-15T00:21:16;2.45;;;2.35;;
23179;SDS011;11758;45.756;11.432;2023-04-15T00:23:43;4.32;;;2.67;;
23179;SDS011;11758;45.756;11.432;2023-04-15T00:26:09;4.45;;;4.05;;
23179;SDS011;11758;45.756;11.432;2023-04-15T00:28:35;5.03;;;3.33;;
23179;SDS011;11758;45.756;11.432;2023-04-15T00:31:01;3.13;;;2.83;;
23179;SDS011;11758;45.756;11.432;2023-04-15T00:33:28;3.22;;;3.00;;
23179;SDS011;11758;45.756;11.432;2023-04-15T00:35:54;5.65;;;4.38;;
23179;SDS011;11758;45.756;11.432;2023-04-15T00:38:20;3.72;;;3.42;;
23179;SDS011;11758;45.756;11.432;2023-04-15T00:40:47;3.30;;;3.00;;
23179;SDS011;11758;45.756;11.432;2023-04-15T00:43:13;4.32;;;2.38;;
23179;SDS011;11758;45.756;11.432;2023-04-15T00:45:40;4.93;;;3.28;;
23179;SDS011;11758;45.756;11.432;2023-04-15T00:48:07;3.20;;;2.92;;
23179;SDS011;11758;45.756;11.432;2023-04-15T00:50:33;2.80;;;2.60;;
23179;SDS011;11758;45.756;11.432;2023-04-15T00:52:59;4.25;;;2.30;;
23179;SDS011;11758;45.756;11.432;2023-04-15T00:55:25;2.75;;;2.55;;
23179;SDS011;11758;45.756;11.432;2023-04-15T00:57:52;2.35;;;2.20;;
23179;SDS011;11758;45.756;11.432;2023-04-15T01:00:18;7.05;;;2.30;;
23179;SDS011;11758;45.756;11.432;2023-04-15T01:02:45;3.25;;;2.25;;
23179;SDS011;11758;45.756;11.432;2023-04-15T01:05:11;2.33;;;2.20;;
23179;SDS011;11758;45.756;11.432;2023-04-15T01:07:37;2.20;;;1.98;;
23179;SDS011;11758;45.756;11.432;2023-04-15T01:10:03;2.28;;;2.17;;
23179;SDS011;11758;45.756;11.432;2023-04-15T01:12:31;2.85;;;2.60;;
23179;SDS011;11758;45.756;11.432;2023-04-15T01:14:58;2.92;;;2.63;;
23179;SDS011;11758;45.756;11.432;2023-04-15T01:17:24;3.42;;;3.13;;
23179;SDS011;11758;45.756;11.432;2023-04-15T01:19:51;4.40;;;3.60;;
23179;SDS011;11758;45.756;11.432;2023-04-15T01:22:17;3.92;;;3.55;;
23179;SDS011;11758;45.756;11.432;2023-04-15T01:24:46;4.53;;;2.95;;
23179;SDS011;11758;45.756;11.432;2023-04-15T01:27:16;4.43;;;4.03;;
23179;SDS011;11758;45.756;11.432;2023-04-15T01:29:42;4.78;;;3.75;;
23179;SDS011;11758;45.756;11.432;2023-04-15T01:32:08;6.55;;;5.05;;
23179;SDS011;11758;45.756;11.432;2023-04-15T01:34:34;4.88;;;4.47;;
23179;SDS011;11758;45.756;11.432;2023-04-15T01:37:01;5.22;;;4.65;;
23179;SDS011;11758;45.756;11.432;2023-04-15T01:39:27;3.72;;;3.42;;
23179;SDS011;11758;45.756;11.432;2023-04-15T01:41:53;3.50;;;3.30;;
23179;SDS011;11758;45.756;11.432;2023-04-15T01:44:19;4.78;;;4.28;;
23179;SDS011;11758;45.756;11.432;2023-04-15T01:46:45;5.00;;;4.60;;
23179;SDS011;11758;45.756;11.432;2023-04-15T01:49:12;4.43;;;4.03;;
23179;SDS011;11758;45.756;11.432;2023-04-15T01:51:38;7.03;;;5.53;;
23179;SDS011;11758;45.756;11.432;2023-04-15T01:54:04;8.35;;;5.63;;
23179;SDS011;11758;45.756;11.432;2023-04-15T01:56:31;5.60;;;5.07;;
23179;SDS011;11758;45.756;11.432;2023-04-15T01:58:57;6.65;;;5.80;;
23179;SDS011;11758;45.756;11.432;2023-04-15T02:01:23;10.35;;;5.60;;
23179;SDS011;11758;45.756;11.432;2023-04-15T02:03:49;5.97;;;5.38;;
23179;SDS011;11758;45.756;11.432;2023-04-15T02:06:16;8.30;;;6.40;;
23179;SDS011;11758;45.756;11.432;2023-04-15T02:08:42;10.80;;;7.30;;
23179;SDS011;11758;45.756;11.432;2023-04-15T02:11:08;10.68;;;6.68;;
23179;SDS011;11758;45.756;11.432;2023-04-15T02:13:34;7.78;;;6.40;;
23179;SDS011;11758;45.756;11.432;2023-04-15T02:16:01;6.50;;;5.70;;
23179;SDS011;11758;45.756;11.432;2023-04-15T02:18:27;7.22;;;5.80;;
23179;SDS011;11758;45.756;11.432;2023-04-15T02:20:53;7.18;;;5.65;;
23179;SDS011;11758;45.756;11.432;2023-04-15T02:23:22;9.38;;;7.28;;
23179;SDS011;11758;45.756;11.432;2023-04-15T02:25:48;8.30;;;6.93;;
23179;SDS011;11758;45.756;11.432;2023-04-15T02:28:15;5.68;;;5.07;;
23179;SDS011;11758;45.756;11.432;2023-04-15T02:30:41;6.97;;;6.18;;
23179;SDS011;11758;45.756;11.432;2023-04-15T02:33:07;12.45;;;6.00;;
23179;SDS011;11758;45.756;11.432;2023-04-15T02:35:33;7.95;;;6.53;;
23179;SDS011;11758;45.756;11.432;2023-04-15T02:38:00;7.72;;;6.45;;
23179;SDS011;11758;45.756;11.432;2023-04-15T02:40:27;6.18;;;5.55;;
23179;SDS011;11758;45.756;11.432;2023-04-15T02:42:53;6.30;;;5.70;;
23179;SDS011;11758;45.756;11.432;2023-04-15T02:45:19;8.82;;;6.35;;
23179;SDS011;11758;45.756;11.432;2023-04-15T02:47:48;9.57;;;5.78;;
23179;SDS011;11758;45.756;11.432;2023-04-15T02:50:14;5.70;;;5.20;;
23179;SDS011;11758;45.756;11.432;2023-04-15T02:52:41;7.35;;;5.43;;
23179;SDS011;11758;45.756;11.432;2023-04-15T02:55:09;5.55;;;4.97;;
23179;SDS011;11758;45.756;11.432;2023-04-15T02:57:35;6.15;;;5.03;;
23179;SDS011;11758;45.756;11.432;2023-04-15T03:00:03;4.95;;;4.30;;
23179;SDS011;11758;45.756;11.432;2023-04-15T03:02:33;7.00;;;5.10;;
23179;SDS011;11758;45.756;11.432;2023-04-15T03:05:00;5.18;;;4.18;;
23179;SDS011;11758;45.756;11.432;2023-04-15T03:07:26;4.28;;;3.90;;
23179;SDS011;11758;45.756;11.432;2023-04-15T03:09:52;4.70;;;4.10;;
23179;SDS011;11758;45.756;11.432;2023-04-15T03:12:18;5.00;;;4.60;;
23179;SDS011;11758;45.756;11.432;2023-04-15T03:14:44;9.27;;;5.35;;
23179;SDS011;11758;45.756;11.432;2023-04-15T03:17:10;7.20;;;5.80;;
23179;SDS011;11758;45.756;11.432;2023-04-15T03:19:36;7.57;;;5.43;;
23179;SDS011;11758;45.756;11.432;2023-04-15T03:22:02;9.30;;;6.28;;
23179;SDS011;11758;45.756;11.432;2023-04-15T03:24:28;6.82;;;5.68;;
23179;SDS011;11758;45.756;11.432;2023-04-15T03:26:55;8.80;;;5.90;;
23179;SDS011;11758;45.756;11.432;2023-04-15T03:29:22;6.15;;;5.30;;
23179;SDS011;11758;45.756;11.432;2023-04-15T03:31:48;6.80;;;6.00;;
23179;SDS011;11758;45.756;11.432;2023-04-15T03:34:14;7.22;;;6.03;;
23179;SDS011;11758;45.756;11.432;2023-04-15T03:36:40;4.55;;;4.20;;
23179;SDS011;11758;45.756;11.432;2023-04-15T03:39:06;7.70;;;4.82;;
23179;SDS011;11758;45.756;11.432;2023-04-15T03:41:33;7.88;;;5.80;;
23179;SDS011;11758;45.756;11.432;2023-04-15T03:43:59;6.13;;;5.53;;
23179;SDS011;11758;45.756;11.432;2023-04-15T03:46:25;9.85;;;5.35;;
23179;SDS011;11758;45.756;11.432;2023-04-15T03:48:52;5.35;;;4.85;;
23179;SDS011;11758;45.756;11.432;2023-04-15T03:51:18;6.20;;;4.78;;
23179;SDS011;11758;45.756;11.432;2023-04-15T03:53:44;4.70;;;4.30;;
23179;SDS011;11758;45.756;11.432;2023-04-15T03:56:10;4.85;;;4.45;;
23179;SDS011;11758;45.756;11.432;2023-04-15T03:58:36;5.60;;;5.00;;
23179;SDS011;11758;45.756;11.432;2023-04-15T04:01:03;6.03;;;5.03;;
23179;SDS011;11758;45.756;11.432;2023-04-15T04:03:29;7.05;;;5.43;;
23179;SDS011;11758;45.756;11.432;2023-04-15T04:05:55;5.50;;;4.95;;
23179;SDS011;11758;45.756;11.432;2023-04-15T04:08:22;6.50;;;4.68;;
23179;SDS011;11758;45.756;11.432;2023-04-15T04:10:48;6.35;;;5.25;;
23179;SDS011;11758;45.756;11.432;2023-04-15T04:13:14;7.45;;;5.03;;
23179;SDS011;11758;45.756;11.432;2023-04-15T04:15:40;22.08;;;9.68;;
23179;SDS011;11758;45.756;11.432;2023-04-15T04:18:06;9.68;;;5.90;;
23179;SDS011;11758;45.756;11.432;2023-04-15T04:20:32;6.20;;;4.78;;
23179;SDS011;11758;45.756;11.432;2023-04-15T04:22:59;6.43;;;5.28;;
23179;SDS011;11758;45.756;11.432;2023-04-15T04:25:25;5.80;;;4.43;;
23179;SDS011;11758;45.756;11.432;2023-04-15T04:27:51;8.32;;;6.57;;
23179;SDS011;11758;45.756;11.432;2023-04-15T04:30:17;7.38;;;4.53;;
23179;SDS011;11758;45.756;11.432;2023-04-15T04:32:43;4.88;;;4.47;;
23179;SDS011;11758;45.756;11.432;2023-04-15T04:35:09;5.05;;;4.55;;
23179;SDS011;11758;45.756;11.432;2023-04-15T04:37:36;5.53;;;5.00;;
23179;SDS011;11758;45.756;11.432;2023-04-15T04:40:02;5.78;;;4.22;;
23179;SDS011;11758;45.756;11.432;2023-04-15T04:42:28;7.95;;;4.80;;
23179;SDS011;11758;45.756;11.432;2023-04-15T04:44:55;4.88;;;4.47;;
23179;SDS011;11758;45.756;11.432;2023-04-15T04:47:21;4.85;;;4.28;;
23179;SDS011;11758;45.756;11.432;2023-04-15T04:49:48;4.72;;;3.65;;
23179;SDS011;11758;45.756;11.432;2023-04-15T04:52:14;5.68;;;4.72;;
23179;SDS011;11758;45.756;11.432;2023-04-15T04:54:40;3.72;;;3.42;;
23179;SDS011;11758;45.756;11.432;2023-04-15T04:57:06;4.15;;;3.78;;
23179;SDS011;11758;45.756;11.432;2023-04-15T04:59:32;4.45;;;3.50;;
23179;SDS011;11758;45.756;11.432;2023-04-15T05:02:10;4.85;;;4.00;;
23179;SDS011;11758;45.756;11.432;2023-04-15T05:04:36;4.00;;;3.70;;
23179;SDS011;11758;45.756;11.432;2023-04-15T05:07:02;3.80;;;3.33;;
23179;SDS011;11758;45.756;11.432;2023-04-15T05:09:28;4.40;;;4.00;;
23179;SDS011;11758;45.756;11.432;2023-04-15T05:11:57;6.57;;;5.72;;
23179;SDS011;11758;45.756;11.432;2023-04-15T05:14:23;5.05;;;4.15;;
23179;SDS011;11758;45.756;11.432;2023-04-15T05:16:49;4.93;;;4.43;;
23179;SDS011;11758;45.756;11.432;2023-04-15T05:19:16;4.60;;;4.18;;
23179;SDS011;11758;45.756;11.432;2023-04-15T05:21:49;5.13;;;4.35;;
23179;SDS011;11758;45.756;11.432;2023-04-15T05:24:15;3.38;;;3.17;;
23179;SDS011;11758;45.756;11.432;2023-04-15T05:26:42;4.03;;;3.53;;
23179;SDS011;11758;45.756;11.432;2023-04-15T05:29:08;7.72;;;3.20;;
23179;SDS011;11758;45.756;11.432;2023-04-15T05:31:34;3.80;;;3.42;;
23179;SDS011;11758;45.756;11.432;2023-04-15T05:34:01;6.57;;;4.22;;
23179;SDS011;11758;45.756;11.432;2023-04-15T05:36:27;4.93;;;4.05;;
23179;SDS011;11758;45.756;11.432;2023-04-15T05:38:53;7.55;;;4.82;;
23179;SDS011;11758;45.756;11.432;2023-04-15T05:41:19;7.60;;;4.90;;
23179;SDS011;11758;45.756;11.432;2023-04-15T05:43:45;8.15;;;4.97;;
23179;SDS011;11758;45.756;11.432;2023-04-15T05:46:11;5.28;;;3.80;;
23179;SDS011;11758;45.756;11.432;2023-04-15T05:48:38;3.30;;;3.00;;
23179;SDS011;11758;45.756;11.432;2023-04-15T05:51:04;9.20;;;5.47;;
23179;SDS011;11758;45.756;11.432;2023-04-15T05:53:30;4.25;;;3.08;;
23179;SDS011;11758;45.756;11.432;2023-04-15T05:55:56;3.72;;;3.42;;
23179;SDS011;11758;45.756;11.432;2023-04-15T05:58:23;2.53;;;2.33;;
23179;SDS011;11758;45.756;11.432;2023-04-15T06:00:49;2.30;;;2.20;;
23179;SDS011;11758;45.756;11.432;2023-04-15T06:03:15;2.25;;;2.15;;
23179;SDS011;11758;45.756;11.432;2023-04-15T06:05:42;2.17;;;2.08;;
23179;SDS011;11758;45.756;11.432;2023-04-15T06:08:09;2.15;;;1.95;;
23179;SDS011;11758;45.756;11.432;2023-04-15T06:10:35;3.88;;;2.63;;
23179;SDS011;11758;45.756;11.432;2023-04-15T06:13:02;5.05;;;3.13;;
23179;SDS011;11758;45.756;11.432;2023-04-15T06:15:28;6.55;;;3.67;;
23179;SDS011;11758;45.756;11.432;2023-04-15T06:17:55;4.57;;;3.08;;
23179;SDS011;11758;45.756;11.432;2023-04-15T06:20:21;9.25;;;4.50;;
23179;SDS011;11758;45.756;11.432;2023-04-15T06:22:48;6.25;;;3.60;;
23179;SDS011;11758;45.756;11.432;2023-04-15T06:25:15;5.40;;;4.30;;
23179;SDS011;11758;45.756;11.432;2023-04-15T06:27:41;3.88;;;3.55;;
23179;SDS011;11758;45.756;11.432;2023-04-15T06:30:08;4.38;;;3.20;;
23179;SDS011;11758;45.756;11.432;2023-04-15T06:32:38;5.15;;;3.10;;
23179;SDS011;11758;45.756;11.432;2023-04-15T06:35:04;6.53;;;3.10;;
23179;SDS011;11758;45.756;11.432;2023-04-15T06:37:30;6.72;;;3.55;;
23179;SDS011;11758;45.756;11.432;2023-04-15T06:39:57;3.42;;;3.13;;
23179;SDS011;11758;45.756;11.432;2023-04-15T06:42:23;8.00;;;3.55;;
23179;SDS011;11758;45.756;11.432;2023-04-15T06:44:49;3.58;;;3.28;;
23179;SDS011;11758;45.756;11.432;2023-04-15T06:47:16;4.32;;;3.50;;
23179;SDS011;11758;45.756;11.432;2023-04-15T06:49:44;3.83;;;3.38;;
23179;SDS011;11758;45.756;11.432;2023-04-15T06:52:10;5.03;;;3.72;;
23179;SDS011;11758;45.756;11.432;2023-04-15T06:54:36;4.30;;;3.47;;
23179;SDS011;11758;45.756;11.432;2023-04-15T06:57:03;5.85;;;3.58;;
23179;SDS011;11758;45.756;11.432;2023-04-15T06:59:29;4.28;;;3.40;;
23179;SDS011;11758;45.756;11.432;2023-04-15T07:01:55;6.72;;;3.70;;
23179;SDS011;11758;45.756;11.432;2023-04-15T07:04:21;4.80;;;3.45;;
23179;SDS011;11758;45.756;11.432;2023-04-15T07:06:48;5.40;;;3.35;;
23179;SDS011;11758;45.756;11.432;2023-04-15T07:09:14;4.97;;;3.47;;
23179;SDS011;11758;45.756;11.432;2023-04-15T07:11:40;5.72;;;4.10;;
23179;SDS011;11758;45.756;11.432;2023-04-15T07:14:07;7.78;;;4.70;;
23179;SDS011;11758;45.756;11.432;2023-04-15T07:16:33;6.10;;;4.93;;
23179;SDS011;11758;45.756;11.432;2023-04-15T07:18:59;5.85;;;4.65;;
23179;SDS011;11758;45.756;11.432;2023-04-15T07:21:25;8.90;;;6.18;;
23179;SDS011;11758;45.756;11.432;2023-04-15T07:23:51;9.90;;;6.45;;
23179;SDS011;11758;45.756;11.432;2023-04-15T07:26:17;15.00;;;5.78;;
23179;SDS011;11758;45.756;11.432;2023-04-15T07:28:44;11.00;;;6.90;;
23179;SDS011;11758;45.756;11.432;2023-04-15T07:31:11;8.05;;;5.50;;
23179;SDS011;11758;45.756;11.432;2023-04-15T07:33:37;19.02;;;7.43;;
23179;SDS011;11758;45.756;11.432;2023-04-15T07:36:03;20.58;;;9.75;;
23179;SDS011;11758;45.756;11.432;2023-04-15T07:38:29;16.27;;;8.45;;
23179;SDS011;11758;45.756;11.432;2023-04-15T07:40:55;15.13;;;6.13;;
23179;SDS011;11758;45.756;11.432;2023-04-15T07:43:22;11.13;;;6.95;;
23179;SDS011;11758;45.756;11.432;2023-04-15T07:45:48;8.75;;;5.07;;
23179;SDS011;11758;45.756;11.432;2023-04-15T07:48:14;5.65;;;4.50;;
23179;SDS011;11758;45.756;11.432;2023-04-15T07:50:40;10.00;;;4.20;;
23179;SDS011;11758;45.756;11.432;2023-04-15T07:53:07;4.43;;;4.03;;
23179;SDS011;11758;45.756;11.432;2023-04-15T07:55:33;3.85;;;3.40;;
23179;SDS011;11758;45.756;11.432;2023-04-15T07:57:59;3.83;;;3.53;;
23179;SDS011;11758;45.756;11.432;2023-04-15T08:00:25;8.60;;;3.60;;
23179;SDS011;11758;45.756;11.432;2023-04-15T08:02:52;4.22;;;3.70;;
23179;SDS011;11758;45.756;11.432;2023-04-15T08:05:18;3.40;;;3.20;;
23179;SDS011;11758;45.756;11.432;2023-04-15T08:07:44;3.75;;;3.10;;
23179;SDS011;11758;45.756;11.432;2023-04-15T08:10:10;3.25;;;3.05;;
23179;SDS011;11758;45.756;11.432;2023-04-15T08:12:38;5.32;;;3.15;;
23179;SDS011;11758;45.756;11.432;2023-04-15T08:15:07;3.85;;;3.50;;
23179;SDS011;11758;45.756;11.432;2023-04-15T08:17:33;3.90;;;3.60;;
23179;SDS011;11758;45.756;11.432;2023-04-15T08:19:59;3.70;;;3.40;;
23179;SDS011;11758;45.756;11.432;2023-04-15T08:22:25;3.78;;;3.13;;
23179;SDS011;11758;45.756;11.432;2023-04-15T08:24:52;3.30;;;3.10;;
23179;SDS011;11758;45.756;11.432;2023-04-15T08:27:18;2.38;;;2.28;;
23179;SDS011;11758;45.756;11.432;2023-04-15T08:29:44;2.28;;;2.13;;
23179;SDS011;11758;45.756;11.432;2023-04-15T08:32:11;3.85;;;2.40;;
23179;SDS011;11758;45.756;11.432;2023-04-15T08:34:37;2.15;;;2.00;;
23179;SDS011;11758;45.756;11.432;2023-04-15T08:37:03;2.45;;;2.35;;
23179;SDS011;11758;45.756;11.432;2023-04-15T08:39:29;2.25;;;2.15;;
23179;SDS011;11758;45.756;11.432;2023-04-15T08:42:02;2.97;;;2.78;;
23179;SDS011;11758;45.756;11.432;2023-04-15T08:47:22;2.95;;;2.78;;
23179;SDS011;11758;45.756;11.432;2023-04-15T08:49:49;3.08;;;2.85;;
23179;SDS011;11758;45.756;11.432;2023-04-15T08:52:17;3.33;;;3.08;;
23179;SDS011;11758;45.756;11.432;2023-04-15T08:54:44;3.72;;;3.42;;
23179;SDS011;11758;45.756;11.432;2023-04-15T08:57:10;2.92;;;2.78;;
23179;SDS011;11758;45.756;11.432;2023-04-15T08:59:37;3.20;;;3.00;;
23179;SDS011;11758;45.756;11.432;2023-04-15T09:02:04;3.20;;;2.95;;
23179;SDS011;11758;45.756;11.432;2023-04-15T09:04:30;4.00;;;2.75;;
23179;SDS011;11758;45.756;11.432;2023-04-15T09:06:56;7.13;;;2.80;;
23179;SDS011;11758;45.756;11.432;2023-04-15T09:09:23;11.27;;;3.42;;
23179;SDS011;11758;45.756;11.432;2023-04-15T09:11:49;3.50;;;3.20;;
23179;SDS011;11758;45.756;11.432;2023-04-15T09:14:15;4.13;;;2.78;;
23179;SDS011;11758;45.756;11.432;2023-04-15T09:16:55;3.72;;;3.08;;
23179;SDS011;11758;45.756;11.432;2023-04-15T09:19:22;3.20;;;3.00;;
23179;SDS011;11758;45.756;11.432;2023-04-15T09:21:49;3.85;;;3.55;;
23179;SDS011;11758;45.756;11.432;2023-04-15T09:24:15;4.93;;;3.55;;
23179;SDS011;11758;45.756;11.432;2023-04-15T09:26:42;3.80;;;3.28;;
23179;SDS011;11758;45.756;11.432;2023-04-15T09:29:09;2.58;;;2.47;;
23179;SDS011;11758;45.756;11.432;2023-04-15T09:31:37;3.30;;;3.00;;
23179;SDS011;11758;45.756;11.432;2023-04-15T09:34:04;2.50;;;2.40;;
23179;SDS011;11758;45.756;11.432;2023-04-15T09:39:12;3.22;;;2.95;;
23179;SDS011;11758;45.756;11.432;2023-04-15T09:41:38;5.50;;;3.35;;
23179;SDS011;11758;45.756;11.432;2023-04-15T09:44:05;3.42;;;3.10;;
23179;SDS011;11758;45.756;11.432;2023-04-15T09:46:44;6.55;;;3.60;;
23179;SDS011;11758;45.756;11.432;2023-04-15T09:49:10;4.00;;;3.00;;
23179;SDS011;11758;45.756;11.432;2023-04-15T09:51:37;7.32;;;4.60;;
23179;SDS011;11758;45.756;11.432;2023-04-15T09:54:04;3.17;;;3.08;;
23179;SDS011;11758;45.756;11.432;2023-04-15T09:56:33;6.13;;;2.92;;
23179;SDS011;11758;45.756;11.432;2023-04-15T09:59:01;4.43;;;2.45;;
23179;SDS011;11758;45.756;11.432;2023-04-15T10:01:28;3.35;;;2.88;;
23179;SDS011;11758;45.756;11.432;2023-04-15T10:03:54;3.17;;;2.95;;
23179;SDS011;11758;45.756;11.432;2023-04-15T10:06:25;2.90;;;2.70;;
23179;SDS011;11758;45.756;11.432;2023-04-15T10:08:51;7.03;;;2.85;;
23179;SDS011;11758;45.756;11.432;2023-04-15T10:11:17;2.83;;;2.60;;
23179;SDS011;11758;45.756;11.432;2023-04-15T10:13:44;3.15;;;2.95;;
23179;SDS011;11758;45.756;11.432;2023-04-15T10:16:13;2.83;;;2.63;;
23179;SDS011;11758;45.756;11.432;2023-04-15T10:18:45;3.80;;;2.75;;
23179;SDS011;11758;45.756;11.432;2023-04-15T10:21:11;5.10;;;2.85;;
23179;SDS011;11758;45.756;11.432;2023-04-15T10:23:40;3.30;;;2.97;;
23179;SDS011;11758;45.756;11.432;2023-04-15T10:26:07;3.65;;;3.45;;
23179;SDS011;11758;45.756;11.432;2023-04-15T10:28:37;4.22;;;2.70;;
23179;SDS011;11758;45.756;11.432;2023-04-15T10:31:03;4.85;;;2.70;;
23179;SDS011;11758;45.756;11.432;2023-04-15T10:33:30;3.40;;;3.10;;
23179;SDS011;11758;45.756;11.432;2023-04-15T10:35:56;3.10;;;3.00;;
23179;SDS011;11758;45.756;11.432;2023-04-15T10:38:42;4.05;;;3.55;;
23179;SDS011;11758;45.756;11.432;2023-04-15T10:41:24;6.80;;;4.15;;
23179;SDS011;11758;45.756;11.432;2023-04-15T10:43:52;3.38;;;3.10;;
23179;SDS011;11758;45.756;11.432;2023-04-15T10:46:20;3.95;;;3.60;;
23179;SDS011;11758;45.756;11.432;2023-04-15T10:48:51;4.10;;;3.80;;
23179;SDS011;11758;45.756;11.432;2023-04-15T10:51:30;6.95;;;3.40;;
23179;SDS011;11758;45.756;11.432;2023-04-15T10:53:58;3.42;;;3.10;;
23179;SDS011;11758;45.756;11.432;2023-04-15T10:56:27;3.25;;;2.80;;
23179;SDS011;11758;45.756;11.432;2023-04-15T10:58:53;2.65;;;2.55;;
23179;SDS011;11758;45.756;11.432;2023-04-15T11:01:19;3.50;;;3.20;;
23179;SDS011;11758;45.756;11.432;2023-04-15T11:03:47;6.18;;;5.57;;
23179;SDS011;11758;45.756;11.432;2023-04-15T11:06:15;5.47;;;3.55;;
23179;SDS011;11758;45.756;11.432;2023-04-15T11:11:19;4.32;;;3.92;;
23179;SDS011;11758;45.756;11.432;2023-04-15T11:13:49;8.73;;;4.60;;
23179;SDS011;11758;45.756;11.432;2023-04-15T11:16:16;3.10;;;2.90;;
23179;SDS011;11758;45.756;11.432;2023-04-15T11:18:52;3.95;;;3.47;;
23179;SDS011;11758;45.756;11.432;2023-04-15T11:21:18;2.78;;;2.58;;
23179;SDS011;11758;45.756;11.432;2023-04-15T11:23:50;3.42;;;3.10;;
23179;SDS011;11758;45.756;11.432;2023-04-15T11:26:16;3.25;;;3.05;;
23179;SDS011;11758;45.756;11.432;2023-04-15T11:28:43;4.40;;;3.08;;
23179;SDS011;11758;45.756;11.432;2023-04-15T11:31:10;3.15;;;2.90;;
23179;SDS011;11758;45.756;11.432;2023-04-15T11:33:37;5.10;;;3.10;;
23179;SDS011;11758;45.756;11.432;2023-04-15T11:36:04;4.70;;;2.70;;
23179;SDS011;11758;45.756;11.432;2023-04-15T11:38:30;4.80;;;3.08;;
23179;SDS011;11758;45.756;11.432;2023-04-15T11:40:56;3.10;;;2.88;;
23179;SDS011;11758;45.756;11.432;2023-04-15T11:43:23;2.60;;;2.50;;
23179;SDS011;11758;45.756;11.432;2023-04-15T11:48:19;3.83;;;2.38;;
23179;SDS011;11758;45.756;11.432;2023-04-15T11:50:51;2.88;;;2.63;;
23179;SDS011;11758;45.756;11.432;2023-04-15T11:53:18;2.65;;;2.55;;
23179;SDS011;11758;45.756;11.432;2023-04-15T11:55:48;2.65;;;2.45;;
23179;SDS011;11758;45.756;11.432;2023-04-15T12:01:03;5.45;;;2.85;;
23179;SDS011;11758;45.756;11.432;2023-04-15T12:03:39;3.72;;;2.78;;
23179;SDS011;11758;45.756;11.432;2023-04-15T12:06:19;4.78;;;2.70;;
23179;SDS011;11758;45.756;11.432;2023-04-15T12:14:06;3.15;;;2.65;;
23179;SDS011;11758;45.756;11.432;2023-04-15T12:16:34;5.22;;;3.30;;
23179;SDS011;11758;45.756;11.432;2023-04-15T12:19:06;4.45;;;3.10;;
23179;SDS011;11758;45.756;11.432;2023-04-15T12:21:34;3.38;;;3.15;;
23179;SDS011;11758;45.756;11.432;2023-04-15T12:24:05;3.13;;;2.83;;
23179;SDS011;11758;45.756;11.432;2023-04-15T12:26:51;3.40;;;3.10;;
23179;SDS011;11758;45.756;11.432;2023-04-15T12:29:19;7.18;;;3.50;;
23179;SDS011;11758;45.756;11.432;2023-04-15T12:34:32;3.47;;;3.28;;
23179;SDS011;11758;45.756;11.432;2023-04-15T12:37:00;2.92;;;2.80;;
23179;SDS011;11758;45.756;11.432;2023-04-15T12:39:27;4.93;;;2.83;;
23179;SDS011;11758;45.756;11.432;2023-04-15T12:41:58;3.22;;;3.03;;
23179;SDS011;11758;45.756;11.432;2023-04-15T12:44:32;3.28;;;2.97;;
23179;SDS011;11758;45.756;11.432;2023-04-15T12:46:58;3.92;;;2.85;;
23179;SDS011;11758;45.756;11.432;2023-04-15T12:49:25;2.95;;;2.85;;
23179;SDS011;11758;45.756;11.432;2023-04-15T12:51:53;5.53;;;4.60;;
23179;SDS011;11758;45.756;11.432;2023-04-15T12:54:19;4.55;;;3.78;;
23179;SDS011;11758;45.756;11.432;2023-04-15T12:56:46;5.72;;;4.20;;
23179;SDS011;11758;45.756;11.432;2023-04-15T12:59:12;4.75;;;3.80;;
23179;SDS011;11758;45.756;11.432;2023-04-15T13:01:38;4.20;;;3.20;;
23179;SDS011;11758;45.756;11.432;2023-04-15T13:04:05;3.67;;;3.08;;
23179;SDS011;11758;45.756;11.432;2023-04-15T13:06:32;5.00;;;3.42;;
23179;SDS011;11758;45.756;11.432;2023-04-15T13:08:58;3.17;;;2.83;;
23179;SDS011;11758;45.756;11.432;2023-04-15T13:11:26;3.85;;;2.90;;
23179;SDS011;11758;45.756;11.432;2023-04-15T13:13:53;6.10;;;3.38;;
23179;SDS011;11758;45.756;11.432;2023-04-15T13:16:21;6.20;;;3.58;;
23179;SDS011;11758;45.756;11.432;2023-04-15T13:18:47;5.03;;;4.05;;
23179;SDS011;11758;45.756;11.432;2023-04-15T13:21:14;4.43;;;3.28;;
23179;SDS011;11758;45.756;11.432;2023-04-15T13:23:41;5.13;;;4.25;;
23179;SDS011;11758;45.756;11.432;2023-04-15T13:26:07;5.45;;;3.92;;
23179;SDS011;11758;45.756;11.432;2023-04-15T13:28:33;3.03;;;2.90;;
23179;SDS011;11758;45.756;11.432;2023-04-15T13:30:59;4.25;;;3.47;;
23179;SDS011;11758;45.756;11.432;2023-04-15T13:33:26;5.40;;;2.97;;
23179;SDS011;11758;45.756;11.432;2023-04-15T13:35:52;5.03;;;3.20;;
23179;SDS011;11758;45.756;11.432;2023-04-15T13:38:18;3.97;;;1.80;;
23179;SDS011;11758;45.756;11.432;2023-04-15T13:40:44;4.22;;;1.80;;
23179;SDS011;11758;45.756;11.432;2023-04-15T13:43:11;2.65;;;1.88;;
23179;SDS011;11758;45.756;11.432;2023-04-15T13:45:37;2.35;;;1.70;;
23179;SDS011;11758;45.756;11.432;2023-04-15T13:48:03;1.90;;;1.80;;
23179;SDS011;11758;45.756;11.432;2023-04-15T13:50:29;3.38;;;2.05;;
23179;SDS011;11758;45.756;11.432;2023-04-15T13:52:56;2.00;;;1.90;;
23179;SDS011;11758;45.756;11.432;2023-04-15T13:55:22;2.05;;;1.38;;
23179;SDS011;11758;45.756;11.432;2023-04-15T13:57:48;1.30;;;1.30;;
23179;SDS011;11758;45.756;11.432;2023-04-15T14:00:14;3.42;;;1.40;;
23179;SDS011;11758;45.756;11.432;2023-04-15T14:02:41;1.67;;;1.60;;
23179;SDS011;11758;45.756;11.432;2023-04-15T14:05:07;2.35;;;2.25;;
23179;SDS011;11758;45.756;11.432;2023-04-15T14:07:33;1.88;;;1.77;;
23179;SDS011;11758;45.756;11.432;2023-04-15T14:10:00;2.53;;;2.30;;
23179;SDS011;11758;45.756;11.432;2023-04-15T14:12:26;1.65;;;1.60;;
23179;SDS011;11758;45.756;11.432;2023-04-15T14:14:52;2.72;;;1.73;;
23179;SDS011;11758;45.756;11.432;2023-04-15T14:17:18;4.07;;;2.00;;
23179;SDS011;11758;45.756;11.432;2023-04-15T14:19:44;1.80;;;1.70;;
23179;SDS011;11758;45.756;11.432;2023-04-15T14:22:10;2.88;;;1.92;;
23179;SDS011;11758;45.756;11.432;2023-04-15T14:24:37;2.83;;;1.50;;
23179;SDS011;11758;45.756;11.432;2023-04-15T14:27:03;1.70;;;1.60;;
23179;SDS011;11758;45.756;11.432;2023-04-15T14:29:29;2.05;;;1.95;;
23179;SDS011;11758;45.756;11.432;2023-04-15T14:31:55;4.18;;;3.10;;
23179;SDS011;11758;45.756;11.432;2023-04-15T14:34:23;3.25;;;2.92;;
23179;SDS011;11758;45.756;11.432;2023-04-15T14:36:50;2.25;;;2.05;;
23179;SDS011;11758;45.756;11.432;2023-04-15T14:39:17;1.60;;;1.50;;
23179;SDS011;11758;45.756;11.432;2023-04-15T14:41:44;1.83;;;1.20;;
23179;SDS011;11758;45.756;11.432;2023-04-15T14:44:10;2.70;;;2.50;;
23179;SDS011;11758;45.756;11.432;2023-04-15T14:46:36;2.38;;;1.50;;
23179;SDS011;11758;45.756;11.432;2023-04-15T14:49:03;1.45;;;1.35;;
23179;SDS011;11758;45.756;11.432;2023-04-15T14:51:29;2.53;;;2.30;;
23179;SDS011;11758;45.756;11.432;2023-04-15T14:53:56;1.90;;;1.80;;